createdAt,value
2018-10-18T00:00:09.547Z,213.93
2018-10-18T00:02:44.329Z,226.80
2018-10-18T00:05:19.962Z,229.80
2018-10-18T00:07:55.806Z,260.23
2018-10-18T00:10:30.685Z,239.47
2018-10-18T00:13:05.515Z,224.12
2018-10-18T00:15:39.868Z,221.30
2018-10-18T00:18:15.752Z,242.30
2018-10-18T00:20:49.594Z,215.77
2018-10-18T00:23:23.145Z,224.27
2018-10-18T00:25:55.954Z,208.17
2018-10-18T00:28:29.768Z,242.73
2018-10-18T00:31:02.788Z,225.00
2018-10-18T00:33:38.717Z,223.83
2018-10-18T00:36:19.857Z,259.33
2018-10-18T00:38:56.187Z,223.53
2018-10-18T00:41:33.694Z,236.97
2018-10-18T00:44:08.239Z,221.87
2018-10-18T00:46:41.847Z,218.67
2018-10-18T00:49:16.513Z,209.73
2018-10-18T00:51:50.025Z,199.87
2018-10-18T00:54:23.536Z,217.60
2018-10-18T00:56:56.254Z,231.73
2018-10-18T00:59:30.317Z,216.90
2018-10-18T01:02:03.761Z,224.43
2018-10-18T01:04:37.301Z,219.87
2018-10-18T01:07:10.164Z,221.73
2018-10-18T01:09:43.291Z,234.43
2018-10-18T01:12:16.235Z,220.03
2018-10-18T01:14:48.546Z,231.83
2018-10-18T01:17:21.789Z,242.87
2018-10-18T01:19:54.415Z,236.10
2018-10-18T01:22:26.872Z,236.43
2018-10-18T01:25:02.013Z,248.33
2018-10-18T01:27:35.174Z,229.53
2018-10-18T01:30:15.302Z,231.18
2018-10-18T01:32:47.806Z,219.33
2018-10-18T01:35:20.205Z,204.93
2018-10-18T01:37:52.621Z,220.47
2018-10-18T01:40:25.427Z,195.40
2018-10-18T01:42:57.746Z,212.03
2018-10-18T01:45:30.088Z,197.40
2018-10-18T01:48:04.860Z,222.50
2018-10-18T01:50:37.236Z,207.07
2018-10-18T01:53:09.745Z,230.87
2018-10-18T01:55:42.538Z,230.03
2018-10-18T01:58:18.497Z,220.07
2018-10-18T02:00:50.817Z,210.40
2018-10-18T02:03:23.557Z,197.20
2018-10-18T02:05:55.934Z,193.03
2018-10-18T02:08:28.282Z,191.73
2018-10-18T02:11:01.053Z,201.90
2018-10-18T02:13:33.517Z,183.63
2018-10-18T02:16:06.673Z,178.90
2018-10-18T02:18:40.301Z,176.23
2018-10-18T02:21:12.705Z,171.50
2018-10-18T02:23:46.233Z,153.97
2018-10-18T02:26:19.100Z,163.13
2018-10-18T02:28:51.746Z,151.80
2018-10-18T02:31:24.941Z,144.00
2018-10-18T02:33:58.008Z,135.83
2018-10-18T02:36:30.350Z,129.57
2018-10-18T02:39:04.615Z,139.05
2018-10-18T02:41:37.593Z,132.20
2018-10-18T02:44:09.985Z,115.80
2018-10-18T02:46:42.324Z,117.78
2018-10-18T02:49:15.125Z,104.28
2018-10-18T02:51:47.452Z,99.60
2018-10-18T02:54:19.992Z,87.37
2018-10-18T02:56:54.657Z,87.90
2018-10-18T02:59:27.016Z,90.70
2018-10-18T03:01:59.369Z,90.80
2018-10-18T03:04:32.156Z,87.93
2018-10-18T03:07:04.970Z,93.07
2018-10-18T03:09:37.303Z,90.43
2018-10-18T03:12:10.193Z,90.83
2018-10-18T03:14:42.619Z,92.37
2018-10-18T03:17:14.954Z,91.57
2018-10-18T03:19:47.661Z,98.60
2018-10-18T03:22:20.645Z,92.07
2018-10-18T03:24:53.690Z,91.33
2018-10-18T03:27:26.504Z,94.73
2018-10-18T03:29:59.743Z,84.23
2018-10-18T03:32:33.714Z,90.13
2018-10-18T03:35:08.149Z,87.10
2018-10-18T03:37:40.776Z,91.07
2018-10-18T03:40:13.225Z,94.27
2018-10-18T03:42:48.067Z,94.83
2018-10-18T03:45:20.588Z,92.47
2018-10-18T03:47:53.185Z,89.40
2018-10-18T03:50:25.985Z,91.17
2018-10-18T03:52:58.275Z,95.20
2018-10-18T03:55:30.640Z,91.00
2018-10-18T03:58:02.901Z,91.03
2018-10-18T04:00:34.591Z,89.33
2018-10-18T04:03:07.237Z,90.17
2018-10-18T04:05:39.626Z,88.27
2018-10-18T04:08:13.253Z,89.93
2018-10-18T04:10:46.024Z,91.97
2018-10-18T04:13:19.198Z,93.40
2018-10-18T04:15:51.584Z,89.03
2018-10-18T04:18:25.474Z,95.18
2018-10-18T04:20:57.807Z,94.33
2018-10-18T04:23:32.979Z,90.53
2018-10-18T04:26:05.789Z,84.83
2018-10-18T04:28:38.108Z,93.10
2018-10-18T04:31:10.897Z,86.57
2018-10-18T04:33:43.701Z,86.53
2018-10-18T04:36:16.677Z,87.80
2018-10-18T04:38:48.944Z,96.80
2018-10-18T04:41:21.841Z,96.17
2018-10-18T04:43:56.018Z,107.70
2018-10-18T04:46:29.416Z,106.40
2018-10-18T04:49:02.138Z,101.40
2018-10-18T04:51:34.573Z,105.23
2018-10-18T04:54:07.481Z,107.73
2018-10-18T04:56:40.934Z,105.15
2018-10-18T04:59:13.235Z,110.57
2018-10-18T05:01:46.323Z,108.37
2018-10-18T05:04:19.033Z,107.87
2018-10-18T05:06:51.411Z,107.93
2018-10-18T05:09:23.734Z,106.87
2018-10-18T05:11:56.416Z,118.47
2018-10-18T05:14:28.842Z,115.20
2018-10-18T05:17:02.102Z,117.17
2018-10-18T05:19:34.680Z,114.93
2018-10-18T05:22:24.801Z,118.93
2018-10-18T05:24:57.619Z,132.27
2018-10-18T05:27:31.266Z,127.57
2018-10-18T05:30:06.713Z,115.80
2018-10-18T05:32:39.333Z,115.00
2018-10-18T05:35:12.202Z,112.73
2018-10-18T05:37:44.752Z,115.67
2018-10-18T05:40:17.213Z,106.37
2018-10-18T05:42:51.915Z,118.17
2018-10-18T05:45:24.529Z,121.80
2018-10-18T05:47:58.051Z,132.47
2018-10-18T05:50:30.731Z,135.15
2018-10-18T05:53:03.573Z,135.03
2018-10-18T05:55:36.229Z,129.77
2018-10-18T05:58:10.391Z,135.83
2018-10-18T06:00:42.985Z,126.00
2018-10-18T06:03:16.488Z,120.20
2018-10-18T06:05:50.462Z,117.83
2018-10-18T06:08:23.415Z,120.37
2018-10-18T06:11:29.369Z,125.80
2018-10-18T06:14:03.397Z,123.40
2018-10-18T06:16:35.932Z,124.57
2018-10-18T06:19:09.964Z,118.17
2018-10-18T06:21:42.513Z,112.47
2018-10-18T06:24:15.152Z,125.53
2018-10-18T06:26:48.241Z,118.50
2018-10-18T06:29:20.842Z,112.60
2018-10-18T06:31:55.509Z,117.30
2018-10-18T06:34:30.265Z,117.03
2018-10-18T06:37:03.136Z,112.90
2018-10-18T06:39:37.025Z,116.72
2018-10-18T06:42:09.512Z,112.07
2018-10-18T06:44:43.933Z,107.13
2018-10-18T06:47:17.161Z,101.97
2018-10-18T06:49:51.532Z,94.80
2018-10-18T06:52:24.132Z,98.83
2018-10-18T06:54:57.111Z,98.97
2018-10-18T06:57:29.550Z,93.50
2018-10-18T07:00:05.171Z,99.00
2018-10-18T07:02:37.897Z,89.40
2018-10-18T07:05:13.362Z,97.43
2018-10-18T07:07:48.299Z,91.40
2018-10-18T07:10:21.303Z,93.87
2018-10-18T07:12:54.009Z,88.30
2018-10-18T07:15:26.741Z,86.73
2018-10-18T07:17:59.644Z,91.27
2018-10-18T07:20:34.306Z,99.03
2018-10-18T07:23:09.152Z,85.53
2018-10-18T07:25:43.796Z,89.17
2018-10-18T07:28:16.285Z,90.57
2018-10-18T07:30:50.893Z,93.43
2018-10-18T07:33:25.583Z,96.72
2018-10-18T07:35:59.828Z,87.60
2018-10-18T07:38:35.466Z,85.63
2018-10-18T07:41:08.827Z,73.93
2018-10-18T07:43:42.682Z,78.63
2018-10-18T07:46:16.879Z,71.80
2018-10-18T07:48:50.154Z,66.73
2018-10-18T07:51:22.884Z,67.83
2018-10-18T07:53:55.794Z,65.10
2018-10-18T07:56:29.029Z,59.67
2018-10-18T07:59:02.322Z,60.87
2018-10-18T08:01:35.452Z,63.03
2018-10-18T08:04:07.965Z,54.38
2018-10-18T08:06:40.573Z,53.37
2018-10-18T08:09:14.157Z,49.30
2018-10-18T08:11:51.582Z,52.40
2018-10-18T08:14:25.763Z,49.83
2018-10-18T08:16:58.752Z,49.03
2018-10-18T08:19:35.269Z,51.13
2018-10-18T08:22:08.533Z,49.47
2018-10-18T08:24:41.131Z,47.47
2018-10-18T08:27:17.789Z,56.43
2018-10-18T08:29:51.960Z,55.13
2018-10-18T08:32:32.479Z,50.67
2018-10-18T08:35:06.018Z,56.17
2018-10-18T08:37:40.221Z,56.27
2018-10-18T08:40:13.450Z,57.83
2018-10-18T08:42:46.759Z,50.87
2018-10-18T08:45:21.122Z,43.15
2018-10-18T08:47:54.695Z,43.80
2018-10-18T08:50:28.127Z,39.20
2018-10-18T08:53:01.389Z,35.03
2018-10-18T08:55:34.012Z,37.33
2018-10-18T08:58:08.387Z,36.13
2018-10-18T09:00:42.056Z,33.77
2018-10-18T09:03:14.788Z,35.30
2018-10-18T09:05:49.185Z,31.73
2018-10-18T09:08:24.222Z,30.67
2018-10-18T09:11:01.638Z,29.77
2018-10-18T09:13:39.041Z,28.97
2018-10-18T09:16:13.232Z,29.35
2018-10-18T09:18:47.748Z,30.52
2018-10-18T09:21:21.333Z,26.83
2018-10-18T09:23:55.753Z,29.48
2018-10-18T09:26:30.815Z,27.77
2018-10-18T09:29:03.558Z,34.07
2018-10-18T09:31:37.077Z,34.77
2018-10-18T09:34:12.285Z,34.60
2018-10-18T09:36:44.807Z,35.77
2018-10-18T09:39:20.967Z,32.73
2018-10-18T09:41:54.476Z,33.83
2018-10-18T09:44:30.156Z,33.73
2018-10-18T09:47:02.660Z,34.13
2018-10-18T09:49:37.447Z,34.13
2018-10-18T09:52:10.941Z,31.20
2018-10-18T09:54:43.790Z,31.47
2018-10-18T09:57:16.544Z,29.70
2018-10-18T09:59:55.102Z,27.40
2018-10-18T10:02:51.972Z,28.47
2018-10-18T10:05:41.923Z,25.50
2018-10-18T10:08:15.103Z,22.83
2018-10-18T10:10:48.524Z,21.57
2018-10-18T10:13:25.156Z,21.10
2018-10-18T10:16:00.768Z,20.20
2018-10-18T10:18:34.877Z,22.37
2018-10-18T10:21:08.165Z,20.13
2018-10-18T10:23:41.375Z,19.50
2018-10-18T10:26:16.058Z,23.80
2018-10-18T10:28:50.889Z,18.20
2018-10-18T10:31:23.725Z,19.00
2018-10-18T10:33:57.137Z,17.70
2018-10-18T10:36:32.005Z,19.40
2018-10-18T10:39:07.261Z,18.30
2018-10-18T10:41:44.165Z,20.73
2018-10-18T10:44:17.431Z,18.93
2018-10-18T10:46:50.854Z,19.13
2018-10-18T10:49:24.957Z,22.40
2018-10-18T10:51:58.982Z,23.00
2018-10-18T10:54:32.577Z,19.33
2018-10-18T10:57:07.387Z,18.23
2018-10-18T10:59:41.391Z,21.10
2018-10-18T11:02:15.924Z,22.03
2018-10-18T11:04:49.628Z,18.43
2018-10-18T11:07:23.404Z,17.73
2018-10-18T11:09:56.689Z,16.93
2018-10-18T11:12:33.420Z,13.33
2018-10-18T11:15:08.977Z,14.60
2018-10-18T11:17:43.913Z,10.33
2018-10-18T11:20:21.137Z,11.55
2018-10-18T11:22:54.026Z,10.32
2018-10-18T11:25:28.582Z,9.40
2018-10-18T11:28:03.669Z,8.87
2018-10-18T11:30:38.270Z,7.60
2018-10-18T11:33:12.955Z,5.60
2018-10-18T11:35:46.289Z,5.37
2018-10-18T11:38:21.210Z,5.77
2018-10-18T11:40:54.945Z,7.07
2018-10-18T11:43:30.731Z,4.73
2018-10-18T11:46:06.115Z,6.03
2018-10-18T11:48:39.419Z,6.23
2018-10-18T11:51:12.715Z,5.83
2018-10-18T11:53:48.470Z,6.10
2018-10-18T11:56:21.088Z,6.50
2018-10-18T11:58:55.041Z,5.57
2018-10-18T12:01:31.690Z,6.07
2018-10-18T12:04:12.173Z,6.70
2018-10-18T12:06:46.108Z,6.13
2018-10-18T12:09:21.389Z,5.93
2018-10-18T12:11:54.619Z,6.10
2018-10-18T12:14:29.693Z,5.70
2018-10-18T12:17:04.233Z,7.57
2018-10-18T12:19:36.829Z,6.40
2018-10-18T12:22:12.215Z,5.23
2018-10-18T12:24:46.117Z,7.57
2018-10-18T12:27:20.196Z,5.33
2018-10-18T12:29:54.184Z,6.70
2018-10-18T12:32:29.018Z,6.50
2018-10-18T12:35:06.162Z,6.77
2018-10-18T12:37:41.448Z,6.30
2018-10-18T12:40:16.313Z,6.30
2018-10-18T12:42:51.181Z,7.07
2018-10-18T12:45:24.040Z,5.73
2018-10-18T12:47:59.752Z,6.77
2018-10-18T12:50:33.093Z,6.77
2018-10-18T12:53:07.353Z,5.20
2018-10-18T12:55:50.341Z,6.03
2018-10-18T12:58:27.736Z,6.73
2018-10-18T13:01:03.316Z,6.80
2018-10-18T13:03:39.631Z,5.53
2018-10-18T13:06:13.036Z,5.13
2018-10-18T13:08:55.723Z,6.13
2018-10-18T13:11:33.564Z,4.47
2018-10-18T13:14:07.936Z,4.67
2018-10-18T13:16:43.974Z,5.63
2018-10-18T13:19:20.306Z,4.55
2018-10-18T13:21:55.846Z,4.77
2018-10-18T13:24:30.548Z,3.93
2018-10-18T13:27:06.554Z,3.15
2018-10-18T13:29:40.384Z,3.30
2018-10-18T13:32:14.522Z,3.27
2018-10-18T13:34:51.185Z,3.10
2018-10-18T13:37:25.024Z,3.15
2018-10-18T13:39:59.310Z,2.90
2018-10-18T13:42:32.010Z,2.20
2018-10-18T13:45:09.729Z,3.57
2018-10-18T13:47:47.413Z,3.07
2018-10-18T13:50:23.006Z,4.20
2018-10-18T13:52:58.334Z,4.93
2018-10-18T13:55:33.730Z,3.10
2018-10-18T13:58:10.169Z,3.13
2018-10-18T14:00:44.214Z,4.73
2018-10-18T14:03:18.970Z,4.63
2018-10-18T14:05:51.689Z,3.03
2018-10-18T14:08:28.337Z,7.00
2018-10-18T14:11:02.309Z,6.17
2018-10-18T14:13:37.604Z,4.40
2018-10-18T14:16:10.516Z,6.80
2018-10-18T14:18:45.937Z,5.83
2018-10-18T14:21:21.061Z,4.77
2018-10-18T14:23:56.791Z,4.62
2018-10-18T14:26:31.808Z,4.53
2018-10-18T14:29:05.275Z,7.10
2018-10-18T14:31:40.300Z,4.80
2018-10-18T14:34:14.097Z,5.80
2018-10-18T14:36:48.227Z,4.43
2018-10-18T14:39:22.624Z,5.03
2018-10-18T14:41:56.610Z,3.67
2018-10-18T14:44:30.443Z,4.17
2018-10-18T14:47:09.110Z,7.00
2018-10-18T14:49:42.894Z,4.10
2018-10-18T14:52:15.639Z,3.80
2018-10-18T14:54:48.824Z,4.30
2018-10-18T14:57:22.322Z,4.20
2018-10-18T14:59:55.273Z,5.00
2018-10-18T15:02:28.228Z,7.47
2018-10-18T15:05:02.434Z,5.13
2018-10-18T15:07:35.970Z,4.80
2018-10-18T15:10:12.593Z,5.00
2018-10-18T15:12:46.344Z,5.57
2018-10-18T15:15:20.404Z,11.87
2018-10-18T15:17:54.350Z,5.93
2018-10-18T15:20:29.260Z,5.50
2018-10-18T15:23:03.928Z,6.15
2018-10-18T15:25:37.805Z,6.53
2018-10-18T15:28:11.235Z,5.37
2018-10-18T15:30:46.326Z,5.67
2018-10-18T15:33:20.347Z,6.77
2018-10-18T15:35:55.525Z,6.37
2018-10-18T15:38:29.355Z,6.47
2018-10-18T15:43:36.261Z,5.60
2018-10-18T15:46:08.969Z,4.67
2018-10-18T15:48:42.729Z,4.40
2018-10-18T15:51:17.648Z,5.33
2018-10-18T15:53:52.687Z,3.47
2018-10-18T15:56:25.694Z,5.63
2018-10-18T15:58:58.859Z,3.93
2018-10-18T16:01:32.121Z,2.83
2018-10-18T16:04:06.145Z,2.90
2018-10-18T16:06:38.929Z,3.63
2018-10-18T16:09:17.038Z,2.30
2018-10-18T16:11:51.041Z,3.07
2018-10-18T16:14:24.701Z,1.97
2018-10-18T16:17:03.457Z,3.00
2018-10-18T16:19:37.195Z,5.47
2018-10-18T16:22:11.259Z,5.03
2018-10-18T16:24:49.587Z,4.43
2018-10-18T16:27:23.946Z,4.10
2018-10-18T16:29:58.439Z,6.00
2018-10-18T16:32:32.011Z,5.43
2018-10-18T16:35:10.312Z,5.60
2018-10-18T16:37:46.113Z,4.77
2018-10-18T16:40:24.006Z,6.30
2018-10-18T16:42:57.126Z,6.47
2018-10-18T16:45:30.549Z,5.97
2018-10-18T16:48:05.728Z,5.13
2018-10-18T16:50:38.521Z,5.50
2018-10-18T16:53:11.278Z,5.77
2018-10-18T16:55:46.008Z,5.93
2018-10-18T16:58:20.214Z,5.73
2018-10-18T17:00:53.744Z,5.57
2018-10-18T17:03:28.652Z,5.63
2018-10-18T17:06:02.005Z,5.73
2018-10-18T17:08:34.728Z,7.03
2018-10-18T17:11:11.838Z,5.80
2018-10-18T17:13:48.608Z,6.93
2018-10-18T17:16:24.888Z,8.43
2018-10-18T17:18:59.371Z,7.50
2018-10-18T17:21:34.895Z,6.33
2018-10-18T17:24:10.751Z,7.67
2018-10-18T17:26:45.609Z,7.13
2018-10-18T17:29:20.302Z,7.13
2018-10-18T17:31:57.433Z,7.73
2018-10-18T17:34:31.543Z,8.13
2018-10-18T17:37:05.010Z,8.07
2018-10-18T17:39:38.470Z,7.40
2018-10-18T17:42:11.361Z,10.40
2018-10-18T17:44:45.514Z,8.40
2018-10-18T17:47:19.674Z,8.50
2018-10-18T17:49:56.013Z,8.87
2018-10-18T17:52:29.319Z,10.00
2018-10-18T17:55:04.818Z,10.10
2018-10-18T17:57:38.734Z,12.57
2018-10-18T18:00:24.385Z,12.50
2018-10-18T18:02:58.614Z,11.53
2018-10-18T18:05:33.214Z,11.47
2018-10-18T18:08:08.160Z,11.03
2018-10-18T18:10:41.470Z,12.20
2018-10-18T18:13:17.000Z,12.77
2018-10-18T18:15:51.047Z,12.90
2018-10-18T18:18:24.730Z,12.70
2018-10-18T18:20:58.355Z,15.43
2018-10-18T18:23:32.777Z,14.23
2018-10-18T18:26:08.745Z,17.17
2018-10-18T18:28:43.678Z,18.03
2018-10-18T18:31:21.169Z,19.40
2018-10-18T18:33:57.131Z,19.60
2018-10-18T18:36:31.414Z,19.95
2018-10-18T18:39:08.234Z,17.00
2018-10-18T18:41:41.116Z,18.60
2018-10-18T18:44:15.540Z,17.77
2018-10-18T18:46:48.747Z,18.83
2018-10-18T18:49:22.494Z,16.80
2018-10-18T18:51:58.547Z,18.10
2018-10-18T18:54:33.081Z,19.97
2018-10-18T18:57:08.392Z,15.73
2018-10-18T18:59:40.918Z,17.05
2018-10-18T19:02:16.300Z,17.57
2018-10-18T19:04:49.764Z,16.67
2018-10-18T19:07:22.425Z,17.20
2018-10-18T19:09:56.424Z,20.60
2018-10-18T19:12:30.773Z,20.97
2018-10-18T19:15:09.530Z,21.90
2018-10-18T19:17:45.064Z,22.20
2018-10-18T19:20:18.696Z,21.00
2018-10-18T19:22:55.434Z,24.10
2018-10-18T19:25:29.494Z,24.30
2018-10-18T19:28:03.006Z,24.43
2018-10-18T19:30:38.785Z,24.58
2018-10-18T19:33:11.578Z,28.20
2018-10-18T19:35:46.149Z,25.67
2018-10-18T19:38:21.254Z,27.63
2018-10-18T19:41:00.190Z,27.47
2018-10-18T19:43:34.847Z,28.60
2018-10-18T19:46:11.844Z,27.77
2018-10-18T19:48:47.337Z,25.27
2018-10-18T19:51:20.760Z,28.80
2018-10-18T19:53:53.589Z,33.17
2018-10-18T19:56:33.487Z,29.90
2018-10-18T19:59:07.621Z,30.83
2018-10-18T20:01:41.804Z,32.87
2018-10-18T20:04:19.469Z,31.27
2018-10-18T20:06:54.097Z,29.87
2018-10-18T20:09:26.812Z,33.10
2018-10-18T20:12:00.235Z,31.03
2018-10-18T20:14:38.548Z,35.40
2018-10-18T20:17:11.963Z,34.37
2018-10-18T20:19:44.698Z,32.57
2018-10-18T20:22:19.514Z,34.97
2018-10-18T20:24:52.784Z,31.87
2018-10-18T20:27:29.175Z,33.60
2018-10-18T20:30:04.163Z,34.33
2018-10-18T20:32:37.458Z,34.50
2018-10-18T20:35:12.736Z,36.37
2018-10-18T20:37:46.190Z,32.23
2018-10-18T20:40:21.520Z,35.53
2018-10-18T20:42:55.867Z,36.67
2018-10-18T20:45:36.122Z,34.47
2018-10-18T20:48:10.185Z,35.83
2018-10-18T20:50:44.550Z,35.77
2018-10-18T20:53:24.772Z,37.63
2018-10-18T20:56:01.066Z,42.53
2018-10-18T20:58:40.444Z,39.10
2018-10-18T21:01:14.308Z,41.30
2018-10-18T21:03:48.313Z,39.00
2018-10-18T21:06:24.306Z,41.20
2018-10-18T21:08:57.739Z,39.43
2018-10-18T21:11:32.493Z,35.73
2018-10-18T21:14:07.085Z,35.60
2018-10-18T21:16:43.346Z,34.20
2018-10-18T21:19:16.534Z,35.73
2018-10-18T21:21:51.505Z,35.40
2018-10-18T21:24:24.923Z,28.93
2018-10-18T21:26:57.799Z,29.80
2018-10-18T21:29:33.219Z,30.03
2018-10-18T21:32:05.956Z,28.77
2018-10-18T21:34:38.794Z,28.10
2018-10-18T21:37:15.831Z,25.10
2018-10-18T21:39:50.861Z,28.90
2018-10-18T21:42:23.855Z,25.07
2018-10-18T21:44:57.194Z,22.43
2018-10-18T21:47:32.332Z,26.07
2018-10-18T21:50:06.436Z,22.33
2018-10-18T21:52:40.533Z,23.30
2018-10-18T21:55:14.710Z,21.23
2018-10-18T21:57:47.335Z,21.57
2018-10-18T22:00:22.722Z,18.43
2018-10-18T22:02:57.233Z,18.40
2018-10-18T22:05:29.714Z,19.07
2018-10-18T22:08:04.546Z,21.80
2018-10-18T22:10:37.223Z,19.30
2018-10-18T22:13:10.112Z,20.27
2018-10-18T22:15:45.508Z,16.93
2018-10-18T22:18:18.474Z,16.97
2018-10-18T22:20:54.643Z,18.67
2018-10-18T22:23:27.469Z,19.13
2018-10-18T22:26:02.052Z,17.43
2018-10-18T22:28:36.068Z,19.20
2018-10-18T22:31:08.658Z,19.27
2018-10-18T22:33:42.220Z,19.83
2018-10-18T22:36:15.056Z,25.03
2018-10-18T22:38:47.809Z,24.27
2018-10-18T22:41:23.249Z,23.23
2018-10-18T22:43:59.322Z,22.00
2018-10-18T22:46:33.514Z,21.70
2018-10-18T22:49:08.627Z,24.70
2018-10-18T22:51:41.130Z,24.93
2018-10-18T22:54:13.685Z,26.33
2018-10-18T22:56:47.698Z,24.23
2018-10-18T22:59:22.573Z,25.30
2018-10-18T23:01:55.332Z,23.23
2018-10-18T23:04:28.577Z,24.10
2018-10-18T23:07:01.084Z,28.33
2018-10-18T23:09:33.599Z,26.07
2018-10-18T23:12:07.515Z,27.80
2018-10-18T23:14:40.877Z,28.83
2018-10-18T23:17:13.431Z,27.17
2018-10-18T23:19:46.377Z,26.23
2018-10-18T23:22:19.015Z,29.13
2018-10-18T23:24:51.601Z,26.97
2018-10-18T23:27:29.584Z,27.03
2018-10-18T23:30:04.417Z,30.37
2018-10-18T23:32:36.988Z,28.63
2018-10-18T23:35:10.485Z,30.15
2018-10-18T23:37:43.509Z,31.87
2018-10-18T23:40:17.214Z,33.03
2018-10-18T23:42:51.104Z,28.27
2018-10-18T23:45:24.470Z,30.83
2018-10-18T23:47:57.037Z,26.33
2018-10-18T23:50:30.097Z,30.33
2018-10-18T23:53:03.248Z,31.97
2018-10-18T23:55:36.323Z,31.50
2018-10-18T23:58:10.442Z,32.60
